Hauptseite
METAR-TAF:

METAR-TAF

Flughäfen :

Thule Air Base

Thule, Grönland

Breite: 76-32N, Länge: 068-42W, Höhe: 77 m

Beobachtung

Neuester Wetterbericht von vor 26 Minuten, um 18:13 UTC
Windstille
Temperatur -15°C
Luftfeuchtigkeit 100%
Luftdruck 1007 hPa
Sichtweite 10 km oder mehr
Durchbrochene Bewölkung in der Höhe von 1500 ft
Schnee leicht

METAR: BGTL 121813Z AUTO 00000KT 9999 -SN BKN015 M15/M15 A2975 RMK AO2 SNB13 SLP064 TSNO $

Zeit: 14:39 (18:39 UTC)


TAF: fehlend

Wetterbeobachtungen und Prognosen von mehr als 4000 Flughäfen (METAR und TAF Bericht).

Die verfügbaren Stationen werden durch gelbe und rote Markierungen auf der Karte dargestellt.

Führen Sie die Maus auf sie, um den Namen der Station zu sehen.

Darauf klicken, um die Beobachtung von Wetterbeobachtungen und Prognosen zu sehen.

Um die Karte zu ändern : klicken Sie auf den grünen Tasten mit einem schwarzen Kreuz Zum Vergrößern, auf den grünen Button mit einem Gedankenstrich zu verkleinern, oder auf die grünen Pfeile für benachbarte Karten.


METAR-TAF: